• Join FlightAware (Why Join?)
  • Login
  • US Flag 
10:00PM EDT


 

Airport Tracker/Info


-or-


 

Live Flight TrackerFlight Track Log ✈ B-2086 ✈ 07-Apr-2013 ✈ ZBAA / PEK - KJFK

Flight Track Log - Related Links

Times and Time Zones

All times are in EDT time to prevent confusion due to time zone crossing. See the B-2086 flight status page for this flight to view local times or setup timezone preferences in your user account.

Time Position Orientation Groundspeed Altitude Reporting Facility
EDT Latitude Longitude Course Direction KTS MPH feet Rate Location/Type
09:22PM 40.4372 116.7966 24° Northeast  Level FlightAware Approximate
09:23PM 40.5562 116.8678 24° Northeast  Level FlightAware Approximate
09:24PM 40.6751 116.9392 24° Northeast  Level FlightAware Approximate
09:25PM 40.7940 117.0109 25° Northeast  Level FlightAware Approximate
09:26PM 40.9128 117.0828 25° Northeast  Level FlightAware Approximate
09:27PM 41.0316 117.1550 25° Northeast  Level FlightAware Approximate
09:28PM 41.1503 117.2275 25° Northeast  Level FlightAware Approximate
09:29PM 41.2690 117.3002 25° Northeast  Level FlightAware Approximate
09:30PM 41.3877 117.3732 25° Northeast  Level FlightAware Approximate
09:31PM 41.5063 117.4464 25° Northeast  Level FlightAware Approximate
09:32PM 41.6248 117.5200 25° Northeast  Level FlightAware Approximate
09:33PM 41.7434 117.5938 25° Northeast  Level FlightAware Approximate
09:34PM 41.8503 117.6607 25° Northeast  Level FlightAware Approximate
09:35PM 41.9687 117.7353 25° Northeast  Level FlightAware Approximate
09:36PM 42.0869 117.8101 25° Northeast  Level FlightAware Approximate
09:37PM 42.2052 117.8852 25° Northeast  Level FlightAware Approximate
09:38PM 42.3234 117.9606 25° Northeast  Level FlightAware Approximate
09:39PM 42.4415 118.0363 25° Northeast  Level FlightAware Approximate
09:40PM 42.5596 118.1123 25° Northeast  Level FlightAware Approximate
09:41PM 42.6777 118.1885 25° Northeast  Level FlightAware Approximate
09:42PM 42.7956 118.2651 25° Northeast  Level FlightAware Approximate
09:43PM 42.9136 118.3419 26° Northeast  Level FlightAware Approximate
09:44PM 43.0314 118.4190 26° Northeast  Level FlightAware Approximate
09:45PM 43.1493 118.4965 26° Northeast  Level FlightAware Approximate
09:46PM 43.2671 118.5742 26° Northeast  Level FlightAware Approximate
09:47PM 43.3848 118.6522 26° Northeast  Level FlightAware Approximate
09:48PM 43.5025 118.7305 26° Northeast  Level FlightAware Approximate
09:49PM 43.6201 118.8092 26° Northeast  Level FlightAware Approximate
09:50PM 43.7376 118.8881 26° Northeast  Level FlightAware Approximate
09:51PM 43.8551 118.9674 26° Northeast  Level FlightAware Approximate
09:52PM 43.9726 119.0470 26° Northeast  Level FlightAware Approximate
09:53PM 44.0900 119.1268 26° Northeast  Level FlightAware Approximate
09:54PM 44.2073 119.2070 26° Northeast  Level FlightAware Approximate
09:55PM 44.3246 119.2876 26° Northeast  Level FlightAware Approximate
09:56PM 44.4419 119.3684 26° Northeast  Level FlightAware Approximate
09:57PM 44.5590 119.4496 26° Northeast  Level FlightAware Approximate
09:58PM 44.6762 119.5311 26° Northeast  Level FlightAware Approximate
09:59PM 44.7932 119.6129 26° Northeast  Level FlightAware Approximate
10:00PM 44.9102 119.6951 26° Northeast  Level FlightAware Approximate
10:01PM 45.0271 119.7776 26° Northeast  Level FlightAware Approximate
10:02PM 45.1440 119.8604 27° Northeast  Level FlightAware Approximate
10:03PM 45.2608 119.9436 27° Northeast  Level FlightAware Approximate
10:04PM 45.3776 120.0271 27° Northeast  Level FlightAware Approximate
10:05PM 45.4943 120.1109 27° Northeast  Level FlightAware Approximate
10:06PM 45.6110 120.1952 27° Northeast  Level FlightAware Approximate
10:07PM 45.7275 120.2797 27° Northeast  Level FlightAware Approximate
10:08PM 45.8440 120.3646 27° Northeast  Level FlightAware Approximate
10:09PM 45.9605 120.4499 27° Northeast  Level FlightAware Approximate
10:10PM 46.0769 120.5355 27° Northeast  Level FlightAware Approximate
10:11PM 46.1932 120.6215 27° Northeast  Level FlightAware Approximate
10:12PM 46.3094 120.7079 27° Northeast  Level FlightAware Approximate
10:13PM 46.4256 120.7946 27° Northeast  Level FlightAware Approximate
10:14PM 46.5418 120.8817 27° Northeast  Level FlightAware Approximate
10:15PM 46.6578 120.9692 27° Northeast  Level FlightAware Approximate
10:16PM 46.7738 121.0570 27° Northeast  Level FlightAware Approximate
10:17PM 46.8897 121.1452 27° Northeast  Level FlightAware Approximate
10:18PM 47.0056 121.2338 28° Northeast  Level FlightAware Approximate
10:19PM 47.1214 121.3228 28° Northeast  Level FlightAware Approximate
10:20PM 47.2371 121.4122 28° Northeast  Level FlightAware Approximate
10:21PM 47.3527 121.5020 28° Northeast  Level FlightAware Approximate
10:22PM 47.4683 121.5921 28° Northeast  Level FlightAware Approximate
10:23PM 47.5838 121.6827 28° Northeast  Level FlightAware Approximate
10:24PM 47.6993 121.7737 28° Northeast  Level FlightAware Approximate
10:25PM 47.8146 121.8650 28° Northeast  Level FlightAware Approximate
10:26PM 47.9300 121.9563 28° Northeast  Level FlightAware Approximate
10:27PM 48.0454 122.0480 28° Northeast  Level FlightAware Approximate
10:28PM 48.1608 122.1402 28° Northeast  Level FlightAware Approximate
10:29PM 48.2760 122.2327 28° Northeast  Level FlightAware Approximate
10:30PM 48.3912 122.3257 28° Northeast  Level FlightAware Approximate
10:31PM 48.5062 122.4190 28° Northeast  Level FlightAware Approximate
10:32PM 48.6213 122.5128 28° Northeast  Level FlightAware Approximate
10:33PM 48.7360 122.6075 29° Northeast  Level FlightAware Approximate
10:34PM 48.8507 122.7028 29° Northeast  Level FlightAware Approximate
10:35PM 48.9652 122.7986 29° Northeast  Level FlightAware Approximate
10:36PM 49.0797 122.8948 29° Northeast  Level FlightAware Approximate
10:37PM 49.1940 122.9914 29° Northeast  Level FlightAware Approximate
10:38PM 49.3083 123.0885 29° Northeast  Level FlightAware Approximate
10:39PM 49.4226 123.1861 29° Northeast  Level FlightAware Approximate
10:40PM 49.5367 123.2841 29° Northeast  Level FlightAware Approximate
10:41PM 49.6507 123.3825 29° Northeast  Level FlightAware Approximate
10:42PM 49.7647 123.4815 29° Northeast  Level FlightAware Approximate
10:43PM 49.8786 123.5808 29° Northeast  Level FlightAware Approximate
10:44PM 49.9924 123.6807 29° Northeast  Level FlightAware Approximate
10:45PM 50.1061 123.7810 29° Northeast  Level FlightAware Approximate
10:46PM 50.2197 123.8818 30° Northeast  Level FlightAware Approximate
10:47PM 50.3333 123.9831 30° Northeast  Level FlightAware Approximate
10:48PM 50.4467 124.0849 30° Northeast  Level FlightAware Approximate
10:49PM 50.5601 124.1872 30° Northeast  Level FlightAware Approximate
10:50PM 50.6733 124.2899 30° Northeast  Level FlightAware Approximate
10:51PM 50.7865 124.3932 30° Northeast  Level FlightAware Approximate
10:52PM 50.8996 124.4970 30° Northeast  Level FlightAware Approximate
10:53PM 51.0126 124.6012 30° Northeast  Level FlightAware Approximate
10:54PM 51.1255 124.7060 30° Northeast  Level FlightAware Approximate
10:55PM 51.2383 124.8113 30° Northeast  Level FlightAware Approximate
10:55PM 46.8900 130.6440 30° Northeast 532 612 31,100  Level FlightAware
10:55PM 46.9210 130.7630 69° East 532 612 31,100  Level FlightAware
10:56PM 46.9590 130.9040 68° East 528 608 31,100  Level FlightAware
10:57PM 47.0040 131.0760 69° East 528 608 31,100  Level FlightAware
10:57PM 47.0330 131.1860 69° East 530 610 31,100  Level FlightAware
10:58PM 47.0770 131.3570 69° East 529 609 31,100  Level FlightAware
10:59PM 47.1040 131.4600 69° East 527 606 31,100 -120 Level FlightAware
11:00PM 47.1600 131.6810 69° East 526 605 31,000 -120 Descending FlightAware
11:00PM 47.1940 131.8130 69° East 525 604 31,000  Level FlightAware
11:01PM 47.2360 131.9790 70° East 523 602 31,000  Level FlightAware
11:02PM 47.2690 132.1100 70° East 521 600 31,000  Level FlightAware
11:02PM 47.2950 132.2160 70° East 521 600 31,000  Level FlightAware
11:03PM 47.3440 132.4140 70° East 521 600 31,000  Level FlightAware
11:04PM 47.3750 132.5370 70° East 522 601 31,000  Level FlightAware
11:05PM 47.4110 132.6840 70° East 520 598 31,000  Level FlightAware
11:05PM 47.4440 132.8200 70° East 521 600 31,000  Level FlightAware
11:06PM 47.4740 132.9460 71° East 520 598 31,000  Level FlightAware
11:07PM 47.5090 133.0920 70° East 517 595 31,000  Level FlightAware
11:07PM 47.5410 133.2260 70° East 515 593 31,000  Level FlightAware
11:08PM 47.5830 133.4000 70° East 515 593 31,000  Level FlightAware
11:09PM 47.6140 133.5350 71° East 515 593 31,000  Level FlightAware
11:10PM 47.6410 133.6490 71° East 516 594 31,000  Level FlightAware
11:10PM 47.6750 133.7950 71° East 517 595 31,000  Level FlightAware
11:11PM 47.7070 133.9350 71° East 516 594 31,000  Level FlightAware
11:12PM 47.7390 134.0730 71° East 517 595 31,000  Level FlightAware
11:12PM 47.7720 134.2170 71° East 516 594 31,000  Level FlightAware
11:13PM 47.8070 134.3720 71° East 515 593 31,000  Level FlightAware
11:14PM 47.8350 134.4950 71° East 515 593 31,000  Level FlightAware
11:14PM 47.8770 134.6350 66° East 525 604 31,000  Level FlightAware
11:15PM 47.9150 134.6840 41° Northeast 537 618 31,000  Level FlightAware
11:15PM 47.9780 134.7400 31° Northeast 544 626 31,000  Level FlightAware
11:16PM 48.0780 134.8200 28° Northeast 545 627 31,000  Level FlightAware
11:17PM 48.2670 134.9750 29° Northeast 547 629 31,000  Level FlightAware
11:18PM 48.3310 135.0280 29° Northeast 548 631 31,000  Level FlightAware
11:18PM 48.4480 135.1270 29° Northeast 549 632 31,000  Level FlightAware
11:19PM 48.5300 135.2030 32° Northeast 548 631 31,000  Level FlightAware
11:20PM 48.6210 135.3220 41° Northeast 543 625 31,000  Level FlightAware
11:21PM 48.6930 135.4280 44° Northeast 543 625 31,000  Level FlightAware
11:21PM 48.7560 135.5210 44° Northeast 542 624 31,000  Level FlightAware
11:22PM 48.8480 135.6580 44° Northeast 542 624 31,000  Level FlightAware
11:23PM 48.9100 135.7510 45° Northeast 543 625 31,000  Level FlightAware
11:23PM 48.9940 135.8760 44° Northeast 543 625 31,000  Level FlightAware
11:24PM 49.0480 135.9580 45° Northeast 543 625 31,000  Level FlightAware
11:25PM 49.1000 136.0370 45° Northeast 543 625 31,000  Level FlightAware
11:25PM 49.1920 136.1780 45° Northeast 543 625 31,000  Level FlightAware
11:26PM 49.2610 136.2830 45° Northeast 543 625 31,000  Level FlightAware
11:27PM 49.3320 136.3940 46° Northeast 543 625 31,000  Level FlightAware
11:27PM 49.4060 136.5080 45° Northeast 544 626 31,000  Level FlightAware
11:28PM 49.4990 136.6240 39° Northeast 548 631 31,000  Level FlightAware
11:29PM 49.5790 136.7060 34° Northeast 550 633 31,000  Level FlightAware
11:30PM 49.6690 136.7980 33° Northeast 550 633 31,000  Level FlightAware
11:30PM 49.7550 136.8870 34° Northeast 551 634 31,000  Level FlightAware
11:31PM 49.8490 136.9840 34° Northeast 552 635 31,000  Level FlightAware
11:32PM 49.9360 137.0740 34° Northeast 552 635 31,000  Level FlightAware
11:32PM 50.0250 137.1680 34° Northeast 553 636 31,000  Level FlightAware
11:33PM 50.1180 137.2660 34° Northeast 554 638 31,000  Level FlightAware
11:34PM 50.2050 137.3590 34° Northeast 556 640 31,000  Level FlightAware
11:34PM 50.2830 137.4430 35° Northeast 557 641 31,000  Level FlightAware
11:35PM 50.3730 137.5400 34° Northeast 558 642 31,000  Level FlightAware
11:36PM 50.5110 137.7030 37° Northeast 559 643 31,000  Level FlightAware
11:37PM 50.6020 137.8160 38° Northeast 559 643 31,000  Level FlightAware
11:38PM 50.7730 138.0260 38° Northeast 560 644 31,000  Level FlightAware
11:39PM 50.8570 138.1290 38° Northeast 561 646 31,000  Level FlightAware
11:40PM 50.9580 138.2440 36° Northeast 565 650 31,000  Level FlightAware
11:40PM 51.0360 138.3250 33° Northeast 565 650 31,000  Level FlightAware
11:41PM 51.1200 138.4130 33° Northeast 565 650 31,000  Level FlightAware
11:42PM 51.2250 138.5230 33° Northeast 564 649 31,000  Level FlightAware
11:42PM 51.3070 138.6090 33° Northeast 565 650 31,000  Level FlightAware
11:43PM 51.3990 138.7070 34° Northeast 565 650 31,000  Level FlightAware
11:44PM 51.5030 138.8170 33° Northeast 565 650 31,000  Level FlightAware
11:45PM 51.5900 138.9100 34° Northeast 567 652 31,000  Level FlightAware
11:45PM 51.6790 139.0060 34° Northeast 568 654 31,000  Level FlightAware
11:46PM 51.7670 139.1000 33° Northeast 569 655 31,000  Level FlightAware
11:47PM 51.8720 139.2140 34° Northeast 570 656 31,000  Level FlightAware
11:47PM 51.9620 139.3120 34° Northeast 570 656 31,000  Level FlightAware
11:48PM 52.0370 139.3930 34° Northeast 571 657 31,000  Level FlightAware
11:49PM 52.1460 139.5110 34° Northeast 571 657 31,000  Level FlightAware
11:49PM 52.2390 139.6120 34° Northeast 572 658 31,000  Level FlightAware
11:50PM 52.3110 139.6910 34° Northeast 572 658 31,000  Level FlightAware
11:51PM 52.4190 139.8100 34° Northeast 573 659 31,000  Level FlightAware
11:52PM 52.5050 139.9060 34° Northeast 573 659 31,000  Level FlightAware
11:52PM 52.5800 139.9890 34° Northeast 573 659 31,000  Level FlightAware
11:53PM 52.6550 140.0720 34° Northeast 573 659 31,000  Level FlightAware
11:54PM 52.7480 140.1760 34° Northeast 573 659 31,000  Level FlightAware
11:54PM 52.8230 140.2600 34° Northeast 573 659 31,000  Level FlightAware
11:55PM 52.8970 140.3430 34° Northeast 573 659 31,000  Level FlightAware
11:56PM 52.9720 140.4270 34° Northeast 573 659 31,000  Level FlightAware
11:56PM 53.0470 140.5100 34° Northeast 573 659 31,000  Level FlightAware
11:57PM 53.1400 140.6150 34° Northeast 573 659 31,000  Level FlightAware
11:58PM 53.2150 140.7000 34° Northeast 573 659 31,000  Level FlightAware
11:59PM 53.2900 140.7840 34° Northeast 573 659 31,000  Level FlightAware
11:59PM 53.3640 140.8680 34° Northeast 573 659 31,000  Level FlightAware
12:00AM 53.4390 140.9530 34° Northeast 573 659 31,000  Level FlightAware
12:01AM 53.5330 141.0590 34° Northeast 573 659 31,000  Level FlightAware
12:03AM 53.7443 141.2335 26° Northeast  Level Estimated
12:04AM 53.8615 141.3312 26° Northeast  Level Estimated
12:05AM 53.9787 141.4295 26° Northeast  Level Estimated
12:06AM 54.0959 141.5283 26° Northeast  Level Estimated
12:07AM 54.2129 141.6277 26° Northeast  Level Estimated
12:08AM 54.3298 141.7276 26° Northeast  Level Estimated
12:09AM 54.4467 141.8281 27° Northeast  Level Estimated
12:10AM 54.5635 141.9292 27° Northeast  Level Estimated
12:11AM 54.6801 142.0308 27° Northeast  Level Estimated
12:12AM 54.7968 142.1331 27° Northeast  Level Estimated
12:13AM 54.9133 142.2359 27° Northeast  Level Estimated
12:14AM 55.0297 142.3394 27° Northeast  Level Estimated
12:15AM 55.1460 142.4434 27° Northeast  Level Estimated
12:16AM 55.2623 142.5480 27° Northeast  Level Estimated
12:17AM 55.3785 142.6533 27° Northeast  Level Estimated
12:18AM 55.4945 142.7592 27° Northeast  Level Estimated
12:19AM 55.6105 142.8657 27° Northeast  Level Estimated
12:20AM 55.7264 142.9728 27° Northeast  Level Estimated
12:21AM 55.8422 143.0806 28° Northeast  Level Estimated
12:22AM 55.9579 143.1890 28° Northeast  Level Estimated
12:23AM 56.0735 143.2981 28° Northeast  Level Estimated
12:24AM 56.1890 143.4078 28° Northeast  Level Estimated
12:25AM 56.3044 143.5182 28° Northeast  Level Estimated
12:26AM 56.4197 143.6292 28° Northeast  Level Estimated
12:27AM 56.5350 143.7410 28° Northeast  Level Estimated
12:28AM 56.6501 143.8534 28° Northeast  Level Estimated
12:29AM 56.7651 143.9665 28° Northeast  Level Estimated
12:30AM 56.8800 144.0803 28° Northeast  Level Estimated
12:31AM 56.9948 144.1948 29° Northeast  Level Estimated
12:32AM 57.1095 144.3100 29° Northeast  Level Estimated
12:33AM 57.2241 144.4259 29° Northeast  Level Estimated
12:34AM 57.3386 144.5425 29° Northeast  Level Estimated
12:35AM 57.4529 144.6599 29° Northeast  Level Estimated
12:36AM 57.5672 144.7780 29° Northeast  Level Estimated
12:37AM 57.6813 144.8969 29° Northeast  Level Estimated
12:38AM 57.7954 145.0165 29° Northeast  Level Estimated
12:39AM 57.9093 145.1368 29° Northeast  Level Estimated
12:40AM 58.0231 145.2579 29° Northeast  Level Estimated
12:41AM 58.1368 145.3798 29° Northeast  Level Estimated
12:42AM 58.2504 145.5025 30° Northeast  Level Estimated
12:43AM 58.3639 145.6260 30° Northeast  Level Estimated
12:44AM 58.4772 145.7502 30° Northeast  Level Estimated
12:45AM 58.5904 145.8753 30° Northeast  Level Estimated
12:46AM 58.7035 146.0012 30° Northeast  Level Estimated
12:47AM 58.8165 146.1279 30° Northeast  Level Estimated
12:48AM 58.9294 146.2554 30° Northeast  Level Estimated
12:49AM 59.0421 146.3838 30° Northeast  Level Estimated
12:50AM 59.1547 146.5130 30° Northeast  Level Estimated
12:51AM 59.2672 146.6430 31° Northeast  Level Estimated
12:52AM 59.3795 146.7739 31° Northeast  Level Estimated
12:53AM 59.4917 146.9057 31° Northeast  Level Estimated
12:54AM 59.6038 147.0384 31° Northeast  Level Estimated
12:55AM 59.7157 147.1720 31° Northeast  Level Estimated
12:56AM 59.8275 147.3064 31° Northeast  Level Estimated
12:57AM 59.9392 147.4418 31° Northeast  Level Estimated
12:58AM 60.0507 147.5780 31° Northeast  Level Estimated
12:59AM 60.1621 147.7152 31° Northeast  Level Estimated
01:00AM 60.2733 147.8533 32° Northeast  Level Estimated
01:01AM 60.3844 147.9924 32° Northeast  Level Estimated
01:02AM 60.4954 148.1324 32° Northeast  Level Estimated
01:03AM 60.6062 148.2734 32° Northeast  Level Estimated
01:04AM 60.7168 148.4153 32° Northeast  Level Estimated
01:05AM 60.8273 148.5583 32° Northeast  Level Estimated
01:06AM 60.9377 148.7022 32° Northeast  Level Estimated
01:07AM 61.0479 148.8471 32° Northeast  Level Estimated
01:08AM 61.1579 148.9931 33° Northeast  Level Estimated
01:09AM 61.2678 149.1400 33° Northeast  Level Estimated
01:10AM 61.3775 149.2880 33° Northeast  Level Estimated
01:11AM 61.4870 149.4370 33° Northeast  Level Estimated
01:12AM 61.5964 149.5871 33° Northeast  Level Estimated
01:13AM 61.7057 149.7382 33° Northeast  Level Estimated
01:14AM 61.8147 149.8904 33° Northeast  Level Estimated
01:15AM 61.9236 150.0437 34° Northeast  Level Estimated
01:16AM 62.0323 150.1981 34° Northeast  Level Estimated
01:17AM 62.1409 150.3536 34° Northeast  Level Estimated
01:18AM 62.2493 150.5102 34° Northeast  Level Estimated
01:19AM 62.3574 150.6680 34° Northeast  Level Estimated
01:20AM 62.4655 150.8268 34° Northeast  Level Estimated
01:21AM 62.5733 150.9869 34° Northeast  Level Estimated
01:22AM 62.6809 151.1481 34° Northeast  Level Estimated
01:23AM 62.7884 151.3105 35° Northeast  Level Estimated
01:24AM 62.8957 151.4740 35° Northeast  Level Estimated
01:25AM 63.0028 151.6388 35° Northeast  Level Estimated
01:26AM 63.1096 151.8047 35° Northeast  Level Estimated
01:27AM 63.2163 151.9720 35° Northeast  Level Estimated
01:28AM 63.3228 152.1404 35° Northeast  Level Estimated
01:29AM 63.4291 152.3101 36° Northeast  Level Estimated
01:30AM 63.5352 152.4810 36° Northeast  Level Estimated
01:31AM 63.6411 152.6533 36° Northeast  Level Estimated
01:32AM 63.7468 152.8268 36° Northeast  Level Estimated
01:33AM 63.8523 153.0016 36° Northeast  Level Estimated
01:34AM 63.9575 153.1777 36° Northeast  Level Estimated
01:35AM 64.0626 153.3552 36° Northeast  Level Estimated
01:36AM 64.1674 153.5340 37° Northeast  Level Estimated
01:37AM 64.2720 153.7141 37° Northeast  Level Estimated
01:38AM 64.3764 153.8956 37° Northeast  Level Estimated
01:39AM 64.4805 154.0786 37° Northeast  Level Estimated
01:40AM 64.5844 154.2628 37° Northeast  Level Estimated
01:41AM 64.6881 154.4486 37° Northeast  Level Estimated
01:42AM 64.7916 154.6357 38° Northeast  Level Estimated
01:43AM 64.8948 154.8243 38° Northeast  Level Estimated
01:44AM 64.9978 155.0143 38° Northeast  Level Estimated
01:45AM 65.1005 155.2058 38° Northeast  Level Estimated
01:46AM 65.2030 155.3988 38° Northeast  Level Estimated
01:47AM 65.3053 155.5933 38° Northeast  Level Estimated
01:48AM 65.4073 155.7893 39° Northeast  Level Estimated
01:49AM 65.5090 155.9868 39° Northeast  Level Estimated
01:50AM 65.6105 156.1859 39° Northeast  Level Estimated
01:51AM 65.7117 156.3865 39° Northeast  Level Estimated
01:52AM 65.8126 156.5887 39° Northeast  Level Estimated
01:53AM 65.9133 156.7925 40° Northeast  Level Estimated
01:54AM 66.0137 156.9979 40° Northeast  Level Estimated
01:55AM 66.1139 157.2049 40° Northeast  Level Estimated
01:56AM 66.2137 157.4136 40° Northeast  Level Estimated
01:57AM 66.3133 157.6239 40° Northeast  Level Estimated
01:58AM 66.4126 157.8358 40° Northeast  Level Estimated
01:59AM 66.5116 158.0495 41° Northeast  Level Estimated
02:00AM 66.6103 158.2649 41° Northeast  Level Estimated
02:01AM 66.7086 158.4820 41° Northeast  Level Estimated
02:02AM 66.8067 158.7008 41° Northeast  Level Estimated
02:03AM 66.9045 158.9214 41° Northeast  Level Estimated
02:04AM 67.0020 159.1437 42° Northeast  Level Estimated
02:05AM 67.0992 159.3679 42° Northeast  Level Estimated
02:06AM 67.1961 159.5938 42° Northeast  Level Estimated
02:07AM 67.2926 159.8216 42° Northeast  Level Estimated
02:08AM 67.3888 160.0512 42° Northeast  Level Estimated
02:09AM 67.4847 160.2827 43° Northeast  Level Estimated
02:10AM 67.5803 160.5160 43° Northeast  Level Estimated
02:11AM 67.6755 160.7512 43° Northeast  Level Estimated
02:12AM 67.7703 160.9883 43° Northeast  Level Estimated
02:13AM 67.8649 161.2274 44° Northeast  Level Estimated
02:14AM 67.9590 161.4684 44° Northeast  Level Estimated
02:15AM 68.0528 161.7114 44° Northeast  Level Estimated
02:16AM 68.1463 161.9563 44° Northeast  Level Estimated
02:17AM 68.2394 162.2032 44° Northeast  Level Estimated
02:18AM 68.3321 162.4522 45° Northeast  Level Estimated
02:19AM 68.4245 162.7032 45° Northeast  Level Estimated
02:20AM 68.5164 162.9562 45° Northeast  Level Estimated
02:21AM 68.6080 163.2113 45° Northeast  Level Estimated
02:22AM 68.6992 163.4685 46° Northeast  Level Estimated
02:23AM 68.7900 163.7278 46° Northeast  Level Estimated
02:24AM 68.8804 163.9892 46° Northeast  Level Estimated
02:25AM 68.9704 164.2527 46° Northeast  Level Estimated
02:26AM 69.0600 164.5184 47° Northeast  Level Estimated
02:27AM 69.1492 164.7863 47° Northeast  Level Estimated
02:28AM 69.2380 165.0564 47° Northeast  Level Estimated
02:29AM 69.3263 165.3287 47° Northeast  Level Estimated
02:30AM 69.4142 165.6032 48° Northeast  Level Estimated
02:31AM 69.5016 165.8800 48° Northeast  Level Estimated
02:32AM 69.5887 166.1590 48° Northeast  Level Estimated
02:33AM 69.6752 166.4403 48° Northeast  Level Estimated
02:34AM 69.7614 166.7240 49° Northeast  Level Estimated
02:35AM 69.8470 167.0099 49° Northeast  Level Estimated
02:36AM 69.9322 167.2981 49° Northeast  Level Estimated
02:37AM 70.0169 167.5887 49° Northeast  Level Estimated
02:38AM 70.1012 167.8817 50° Northeast  Level Estimated
02:39AM 70.1850 168.1771 50° Northeast  Level Estimated
02:40AM 70.2682 168.4748 50° Northeast  Level Estimated
02:41AM 70.3510 168.7750 51° Northeast  Level Estimated
02:42AM 70.4333 169.0776 51° Northeast  Level Estimated
02:43AM 70.5151 169.3826 51° Northeast  Level Estimated
02:44AM 70.5963 169.6902 51° Northeast  Level Estimated
02:45AM 70.6770 170.0002 52° Northeast  Level Estimated
02:46AM 70.7572 170.3126 52° Northeast  Level Estimated
02:47AM 70.8369 170.6276 52° Northeast  Level Estimated
02:48AM 70.9160 170.9451 53° Northeast  Level Estimated
02:49AM 70.9946 171.2652 53° Northeast  Level Estimated
02:50AM 71.0726 171.5878 53° Northeast  Level Estimated
02:51AM 71.1501 171.9129 53° Northeast  Level Estimated
02:52AM 71.2270 172.2407 54° Northeast  Level Estimated
02:53AM 71.3033 172.5710 54° Northeast  Level Estimated
02:54AM 71.3790 172.9039 54° Northeast  Level Estimated
02:55AM 71.4542 173.2395 55° Northeast  Level Estimated
02:56AM 71.5287 173.5776 55° Northeast  Level Estimated
02:57AM 71.6027 173.9184 55° Northeast  Level Estimated
02:58AM 71.6760 174.2619 56° Northeast  Level Estimated
02:59AM 71.7487 174.6080 56° Northeast  Level Estimated
03:00AM 71.8208 174.9567 56° Northeast  Level Estimated
03:01AM 71.8923 175.3082 57° Northeast  Level Estimated
03:02AM 71.9631 175.6623 57° Northeast  Level Estimated
03:03AM 72.0332 176.0191 57° Northeast  Level Estimated
03:04AM 72.1027 176.3786 58° Northeast  Level Estimated
03:05AM 72.1716 176.7407 58° Northeast  Level Estimated
03:06AM 72.2397 177.1056 58° Northeast  Level Estimated
03:07AM 72.3072 177.4732 59° Northeast  Level Estimated
03:08AM 72.3740 177.8435 59° Northeast  Level Estimated
03:09AM 72.4401 178.2165 59° Northeast  Level Estimated
03:10AM 72.5055 178.5923 60° Northeast  Level Estimated
03:11AM 72.5702 178.9707 60° Northeast  Level Estimated
03:12AM 72.6342 179.3519 61° Northeast  Level Estimated
03:13AM 72.6974 179.7358 61° Northeast  Level Estimated
03:14AM 72.7599 -179.8776 61° Northeast  Level Estimated
03:15AM 72.8217 -179.4883 62° Northeast  Level Estimated
03:16AM 72.8827 -179.0963 62° Northeast  Level Estimated
03:17AM 72.9430 -178.7016 62° Northeast  Level Estimated
03:18AM 73.0024 -178.3042 63° Northeast  Level Estimated
03:19AM 73.0611 -177.9041 63° Northeast  Level Estimated
03:20AM 73.1191 -177.5013 63° Northeast  Level Estimated
03:21AM 73.1762 -177.0958 64° Northeast  Level Estimated
03:22AM 73.2325 -176.6877 64° Northeast  Level Estimated
03:23AM 73.2880 -176.2769 65° Northeast  Level Estimated
03:24AM 73.3428 -175.8635 65° Northeast  Level Estimated
03:25AM 73.3966 -175.4474 65° Northeast  Level Estimated
03:26AM 73.4497 -175.0288 66° East  Level Estimated
03:26AM 72.0500 -167.4500 68° East 540 621 33,000  Level Anchorage Center
03:27AM 73.5019 -174.6075 66° East  Level Estimated
03:27AM 72.0500 -167.0333 90° East 470 541 33,000  Level Anchorage Center
03:28AM 73.5533 -174.1837 67° East  Level Estimated
03:28AM 72.0500 -166.6167 90° East 470 541 33,000  Level Anchorage Center
03:29AM 73.6038 -173.7573 67° East  Level Estimated
03:29AM 72.0667 -166.2000 82° East 470 541 33,000  Level Anchorage Center
03:30AM 73.6534 -173.3283 67° East  Level Estimated
03:30AM 72.0667 -165.7667 90° East 470 541 33,000  Level Anchorage Center
03:31AM 73.7022 -172.8969 68° East  Level Estimated
03:31AM 72.0667 -165.3500 90° East 470 541 33,000  Level Anchorage Center
03:32AM 72.0667 -164.9333 90° East 470 541 33,000  Level Anchorage Center
03:33AM 72.0833 -164.5000 83° East 470 541 33,000  Level Anchorage Center
03:34AM 72.0833 -164.0833 90° East 470 541 33,000  Level Anchorage Center
03:35AM 72.0833 -163.6667 90° East 470 541 33,000  Level Anchorage Center
03:36AM 72.0833 -163.2333 90° East 470 541 33,000  Level Anchorage Center
03:37AM 72.0833 -162.8167 90° East 470 541 33,000  Level Anchorage Center
03:38AM 72.0833 -162.4000 90° East 470 541 33,000  Level Anchorage Center
03:39AM 72.0833 -161.9667 90° East 480 552 33,000  Level Anchorage Center
03:40AM 72.0833 -161.5333 90° East 480 552 33,000  Level Anchorage Center
03:41AM 72.0833 -161.1167 90° East 470 541 33,000  Level Anchorage Center
03:42AM 72.0667 -160.6833 97° East 480 552 33,000  Level Anchorage Center
03:43AM 72.0667 -160.2500 90° East 480 552 33,000  Level Anchorage Center
03:44AM 72.0667 -159.8333 90° East 480 552 33,000  Level Anchorage Center
03:45AM 72.0500 -159.4000 97° East 480 552 33,000  Level Anchorage Center
03:46AM 72.0500 -158.9667 90° East 470 541 33,000  Level Anchorage Center
03:47AM 72.0333 -158.5500 97° East 480 552 33,000  Level Anchorage Center
03:48AM 72.0167 -158.1167 97° East 480 552 33,000  Level Anchorage Center
03:49AM 72.0167 -157.6833 90° East 480 552 33,000  Level Anchorage Center
03:50AM 72.0000 -157.2667 97° East 480 552 33,000  Level Anchorage Center
03:51AM 72.0000 -156.8333 90° East 470 541 33,000  Level Anchorage Center
03:52AM 72.0000 -156.4000 90° East 470 541 33,000  Level Anchorage Center
03:53AM 72.0000 -155.9833 90° East 480 552 33,000  Level Anchorage Center
03:54AM 72.0000 -155.5500 90° East 480 552 33,000  Level Anchorage Center
03:55AM 72.0167 -155.1333 82° East 470 541 33,000  Level Anchorage Center
03:56AM 72.0167 -154.7167 90° East 470 541 33,000  Level Anchorage Center
03:57AM 72.0167 -154.2833 90° East 480 552 33,000  Level Anchorage Center
03:58AM 72.0167 -153.8500 90° East 480 552 33,000  Level Anchorage Center
03:59AM 72.0167 -153.4333 90° East 480 552 33,000  Level Anchorage Center
04:00AM 72.0167 -153.0833 90° East 490 564 33,000  Level Anchorage Center
04:01AM 72.0000 -152.6500 97° East 480 552 33,000  Level Anchorage Center
04:03AM 72.0000 -151.8000 90° East 490 564 33,000  Level Anchorage Center
04:04AM 71.9833 -151.3667 97° East 480 552 33,000  Level Anchorage Center
04:05AM 71.9833 -150.9167 90° East 480 552 33,000  Level Anchorage Center
04:06AM 71.9667 -150.4833 97° East 470 541 33,000  Level Anchorage Center
04:07AM 71.9667 -150.0833 90° East 460 529 33,000  Level Anchorage Center
04:08AM 71.9500 -149.6333 97° East 480 552 33,000  Level Anchorage Center
04:09AM 71.9500 -149.2167 90° East 470 541 33,000  Level Anchorage Center
04:10AM 71.9333 -148.7833 97° East 480 552 33,000  Level Anchorage Center
04:11AM 71.9167 -148.3667 97° East 480 552 33,000  Level Anchorage Center
04:12AM 71.9167 -147.9333 90° East 480 552 33,000  Level Anchorage Center
04:13AM 71.9000 -147.5167 97° East 480 552 33,000  Level Anchorage Center
04:14AM 71.8833 -147.1000 97° East 470 541 33,000  Level Anchorage Center
04:15AM 71.8667 -146.6667 97° East 480 552 33,000  Level Anchorage Center
04:16AM 71.8500 -146.2667 97° East 470 541 33,000  Level Anchorage Center
04:17AM 71.8333 -145.8333 97° East 480 552 33,000  Level Anchorage Center
04:18AM 71.8167 -145.4167 97° East 470 541 33,000  Level Anchorage Center
04:19AM 71.7833 -145.0000 104° East 480 552 33,000  Level Anchorage Center
04:21AM 71.7485 -144.2917 99° East  Level FlightAware Approximate
04:22AM 71.7333 -143.7500 99° East 480 552 33,000  Level Anchorage Center
04:23AM 71.7000 -143.3333 104° East 480 552 33,000  Level Anchorage Center
04:24AM 71.6833 -142.9167 97° East 470 541 33,000  Level Anchorage Center
04:25AM 71.6500 -142.5167 105° East 480 552 33,000  Level Anchorage Center
04:26AM 71.6333 -142.1000 97° East 480 552 33,000  Level Anchorage Center
04:27AM 71.6000 -141.7000 105° East 480 552 33,000  Level Anchorage Center
04:28AM 71.5667 -141.2833 104° East 480 552 33,000  Level Anchorage Center
04:30AM 71.5379 -140.5951 95° East  Level FlightAware Approximate
04:32AM 71.5500 -141.0000 95° East 497 572 33,000  Level ETMS Enhanced Traffic Management System
04:32AM 71.5667 -141.0000 95° East 485 558 33,000  Level Anchorage Center
04:37AM 71.4236 -137.6502 96° East  Level FlightAware Approximate
04:38AM 71.4145 -137.1096 99° East 485 558 33,000  Level FlightAware Transoceanic
04:39AM 71.3927 -136.6815 99° East 485 558 33,000  Level FlightAware Transoceanic
04:40AM 71.3700 -136.2545 100° East 485 558 33,000  Level FlightAware Transoceanic
04:41AM 71.3463 -135.8284 100° East 485 558 33,000  Level FlightAware Transoceanic
04:42AM 71.3216 -135.4034 100° East 485 558 33,000  Level FlightAware Transoceanic
04:43AM 71.2960 -134.9795 101° East 485 558 33,000  Level FlightAware Transoceanic
04:44AM 71.2694 -134.5568 101° East 485 558 33,000  Level FlightAware Transoceanic
04:45AM 71.2419 -134.1352 102° East 485 558 33,000  Level FlightAware Transoceanic
04:46AM 71.2134 -133.7148 102° East 485 558 33,000  Level FlightAware Transoceanic
04:47AM 71.1840 -133.2957 102° East 485 558 33,000  Level FlightAware Transoceanic
04:48AM 71.1537 -132.8779 103° East 485 558 33,000  Level FlightAware Transoceanic
04:49AM 71.1224 -132.4613 103° East 485 558 33,000  Level FlightAware Transoceanic
04:50AM 71.0902 -132.0461 104° East 485 558 33,000  Level FlightAware Transoceanic
04:51AM 71.0571 -131.6323 104° East 485 558 33,000  Level FlightAware Transoceanic
04:52AM 71.0231 -131.2200 104° East 485 558 33,000  Level FlightAware Transoceanic
04:53AM 70.9882 -130.8090 105° East 485 558 33,000  Level FlightAware Transoceanic
04:54AM 70.9524 -130.3995 105° East 485 558 33,000  Level FlightAware Transoceanic
04:55AM 70.9156 -129.9915 106° East 485 558 33,000  Level FlightAware Transoceanic
04:56AM 70.8780 -129.5851 106° East 485 558 33,000  Level FlightAware Transoceanic
04:57AM 70.8395 -129.1802 106° East 485 558 33,000  Level FlightAware Transoceanic
04:58AM 70.8001 -128.7769 107° East 485 558 33,000  Level FlightAware Transoceanic
04:59AM 70.7598 -128.3752 107° East 485 558 33,000  Level FlightAware Transoceanic
05:00AM 70.7187 -127.9751 108° East 485 558 33,000  Level FlightAware Transoceanic
05:01AM 70.6766 -127.5767 108° East 485 558 33,000  Level FlightAware Transoceanic
05:02AM 70.6338 -127.1799 108° East 485 558 33,000  Level FlightAware Transoceanic
05:03AM 70.5900 -126.7849 109° East 485 558 33,000  Level FlightAware Transoceanic
05:04AM 70.5454 -126.3916 109° East 485 558 33,000  Level FlightAware Transoceanic
05:05AM 70.4995 -126.0132 110° East  Level Estimated
05:06AM 70.4527 -125.6365 110° East  Level Estimated
05:07AM 70.4052 -125.2616 111° Southeast  Level Estimated
05:08AM 70.3569 -124.8884 111° Southeast  Level Estimated
05:09AM 70.3078 -124.5170 111° Southeast  Level Estimated
05:10AM 70.2580 -124.1473 112° Southeast  Level Estimated
05:11AM 70.2074 -123.7795 112° Southeast  Level Estimated
05:12AM 70.1561 -123.4135 112° Southeast  Level Estimated
05:13AM 70.1040 -123.0493 113° Southeast  Level Estimated
05:14AM 70.0512 -122.6870 113° Southeast  Level Estimated
05:15AM 69.9977 -122.3265 113° Southeast  Level Estimated
05:16AM 69.9434 -121.9679 114° Southeast  Level Estimated
05:17AM 69.8884 -121.6111 114° Southeast  Level Estimated
05:18AM 69.8327 -121.2562 114° Southeast  Level Estimated
05:19AM 69.7763 -120.9032 115° Southeast  Level Estimated
05:20AM 69.7192 -120.5521 115° Southeast  Level Estimated
05:21AM 69.6614 -120.2029 115° Southeast  Level Estimated
05:22AM 69.6029 -119.8556 116° Southeast  Level Estimated
05:23AM 69.5437 -119.5102 116° Southeast  Level Estimated
05:24AM 69.4839 -119.1667 116° Southeast  Level Estimated
05:25AM 69.4234 -118.8252 117° Southeast  Level Estimated
05:26AM 69.3622 -118.4856 117° Southeast  Level Estimated
05:27AM 69.3003 -118.1479 117° Southeast  Level Estimated
05:28AM 69.2378 -117.8121 118° Southeast  Level Estimated
05:29AM 69.1747 -117.4783 118° Southeast  Level Estimated
05:30AM 69.1109 -117.1464 118° Southeast  Level Estimated
05:31AM 69.0464 -116.8165 119° Southeast  Level Estimated
05:32AM 68.9814 -116.4885 119° Southeast  Level Estimated
05:33AM 68.9157 -116.1624 119° Southeast  Level Estimated
05:34AM 68.8494 -115.8383 119° Southeast  Level Estimated
05:35AM 68.7825 -115.5161 120° Southeast  Level Estimated
05:36AM 68.7149 -115.1959 120° Southeast  Level Estimated
05:37AM 68.6468 -114.8776 120° Southeast  Level Estimated
05:38AM 68.5781 -114.5613 121° Southeast  Level Estimated
05:39AM 68.5088 -114.2468 121° Southeast  Level Estimated
05:40AM 68.4389 -113.9344 121° Southeast  Level Estimated
05:41AM 68.3684 -113.6238 122° Southeast  Level Estimated
05:42AM 68.2973 -113.3152 122° Southeast  Level Estimated
05:43AM 68.2257 -113.0085 122° Southeast  Level Estimated
05:44AM 68.1535 -112.7037 122° Southeast  Level Estimated
05:45AM 68.0808 -112.4008 123° Southeast  Level Estimated
05:46AM 68.0075 -112.0999 123° Southeast  Level Estimated
05:47AM 67.9336 -111.8009 123° Southeast  Level Estimated
05:48AM 67.8593 -111.5037 123° Southeast  Level Estimated
05:49AM 67.7844 -111.2085 124° Southeast  Level Estimated
05:50AM 67.7089 -110.9151 124° Southeast  Level Estimated
05:51AM 67.6330 -110.6237 124° Southeast  Level Estimated
05:52AM 67.5565 -110.3341 125° Southeast  Level Estimated
05:53AM 67.4795 -110.0464 125° Southeast  Level Estimated
05:54AM 67.4020 -109.7605 125° Southeast  Level Estimated
05:55AM 67.3240 -109.4765 125° Southeast  Level Estimated
05:56AM 67.2455 -109.1944 126° Southeast  Level Estimated
05:57AM 67.1665 -108.9141 126° Southeast  Level Estimated
05:58AM 67.0870 -108.6356 126° Southeast  Level Estimated
05:59AM 67.0070 -108.3590 126° Southeast  Level Estimated
06:00AM 66.9266 -108.0842 127° Southeast  Level Estimated
06:01AM 66.8457 -107.8112 127° Southeast  Level Estimated
06:02AM 66.7643 -107.5400 127° Southeast  Level Estimated
06:03AM 66.6824 -107.2706 127° Southeast  Level Estimated
06:04AM 66.6002 -107.0030 128° Southeast  Level Estimated
06:05AM 66.5174 -106.7371 128° Southeast  Level Estimated
06:06AM 66.4342 -106.4730 128° Southeast  Level Estimated
06:07AM 66.3506 -106.2107 128° Southeast  Level Estimated
06:08AM 66.2665 -105.9501 129° Southeast  Level Estimated
06:09AM 66.1820 -105.6913 129° Southeast  Level Estimated
06:10AM 66.0970 -105.4342 129° Southeast  Level Estimated
06:11AM 66.0116 -105.1788 129° Southeast  Level Estimated
06:12AM 65.9258 -104.9251 130° Southeast  Level Estimated
06:13AM 65.8396 -104.6731 130° Southeast  Level Estimated
06:14AM 65.7530 -104.4228 130° Southeast  Level Estimated
06:15AM 65.6660 -104.1742 130° Southeast  Level Estimated
06:16AM 65.5786 -103.9273 131° Southeast  Level Estimated
06:17AM 65.4908 -103.6820 131° Southeast  Level Estimated
06:18AM 65.4025 -103.4383 131° Southeast  Level Estimated
06:19AM 65.3139 -103.1963 131° Southeast  Level Estimated
06:20AM 65.2249 -102.9559 131° Southeast  Level Estimated
06:21AM 65.1356 -102.7172 132° Southeast  Level Estimated
06:22AM 65.0458 -102.4800 132° Southeast  Level Estimated
06:23AM 64.9557 -102.2445 132° Southeast  Level Estimated
06:24AM 64.8652 -102.0105 132° Southeast  Level Estimated
06:25AM 64.7743 -101.7781 132° Southeast  Level Estimated
06:26AM 64.6831 -101.5472 133° Southeast  Level Estimated
06:27AM 64.5915 -101.3179 133° Southeast  Level Estimated
06:28AM 64.4996 -101.0902 133° Southeast  Level Estimated
06:29AM 64.4073 -100.8640 133° Southeast  Level Estimated
06:30AM 64.3147 -100.6393 134° Southeast  Level Estimated
06:31AM 64.2217 -100.4161 134° Southeast  Level Estimated
06:32AM 64.1284 -100.1944 134° Southeast  Level Estimated
06:33AM 64.0348 -99.9742 134° Southeast  Level Estimated
06:34AM 63.9408 -99.7554 134° Southeast  Level Estimated
06:35AM 63.8465 -99.5382 135° Southeast  Level Estimated
06:36AM 63.7519 -99.3223 135° Southeast  Level Estimated
06:37AM 63.6570 -99.1080 135° Southeast  Level Estimated
06:38AM 63.5617 -98.8950 135° Southeast  Level Estimated
06:39AM 63.4661 -98.6835 135° Southeast  Level Estimated
06:40AM 63.3703 -98.4734 135° Southeast  Level Estimated
06:41AM 63.2741 -98.2647 136° Southeast  Level Estimated
06:42AM 63.1776 -98.0574 136° Southeast  Level Estimated
06:43AM 63.0808 -97.8514 136° Southeast  Level Estimated
06:44AM 62.9837 -97.6469 136° Southeast  Level Estimated
06:45AM 62.8863 -97.4436 136° Southeast  Level Estimated
06:46AM 62.7887 -97.2418 137° Southeast  Level Estimated
06:47AM 62.6907 -97.0412 137° Southeast  Level Estimated
06:48AM 62.5924 -96.8420 137° Southeast  Level Estimated
06:49AM 62.4939 -96.6441 137° Southeast  Level Estimated
06:50AM 62.3951 -96.4475 137° Southeast  Level Estimated
06:51AM 62.2960 -96.2523 137° Southeast  Level Estimated
06:52AM 62.1967 -96.0583 138° Southeast  Level Estimated
06:53AM 62.0971 -95.8655 138° Southeast  Level Estimated
06:54AM 61.9972 -95.6740 138° Southeast  Level Estimated
06:55AM 61.8970 -95.4838 138° Southeast  Level Estimated
06:56AM 61.7966 -95.2948 138° Southeast  Level Estimated
06:57AM 61.6959 -95.1071 138° Southeast  Level Estimated
06:58AM 61.5950 -94.9206 139° Southeast  Level Estimated
06:59AM 61.4939 -94.7353 139° Southeast  Level Estimated
07:00AM 61.3924 -94.5512 139° Southeast  Level Estimated
07:01AM 61.2907 -94.3682 139° Southeast  Level Estimated
07:02AM 61.1888 -94.1865 139° Southeast  Level Estimated
07:03AM 61.0867 -94.0060 139° Southeast  Level Estimated
07:04AM 60.9843 -93.8266 140° Southeast  Level Estimated
07:05AM 60.8816 -93.6483 140° Southeast  Level Estimated
07:06AM 60.7788 -93.4712 140° Southeast  Level Estimated
07:07AM 60.6757 -93.2953 140° Southeast  Level Estimated
07:08AM 60.5723 -93.1204 140° Southeast  Level Estimated
07:09AM 60.4688 -92.9467 140° Southeast  Level Estimated
07:10AM 60.3650 -92.7741 141° Southeast  Level Estimated
07:11AM 60.2610 -92.6026 141° Southeast  Level Estimated
07:12AM 60.1568 -92.4321 141° Southeast  Level Estimated
07:13AM 60.0523 -92.2628 141° Southeast  Level Estimated
07:14AM 59.9477 -92.0945 141° Southeast  Level Estimated
07:15AM 59.8428 -91.9273 141° Southeast  Level Estimated
07:16AM 59.7377 -91.7611 141° Southeast  Level Estimated
07:17AM 59.6324 -91.5960 142° Southeast  Level Estimated
07:18AM 59.5270 -91.4319 142° Southeast  Level Estimated
07:19AM 59.4212 -91.2688 142° Southeast  Level Estimated
07:20AM 59.3153 -91.1068 142° Southeast  Level Estimated
07:21AM 59.2093 -90.9457 142° Southeast  Level Estimated
07:22AM 59.1030 -90.7857 142° Southeast  Level Estimated
07:23AM 58.9965 -90.6266 142° Southeast  Level Estimated
07:24AM 58.8898 -90.4685 143° Southeast  Level Estimated
07:25AM 58.7829 -90.3114 143° Southeast  Level Estimated
07:26AM 58.6758 -90.1553 143° Southeast  Level Estimated
07:27AM 58.5686 -90.0001 143° Southeast  Level Estimated
07:28AM 58.4611 -89.8459 143° Southeast  Level Estimated
07:29AM 58.3535 -89.6926 143° Southeast  Level Estimated
07:30AM 58.2457 -89.5402 143° Southeast  Level Estimated
07:31AM 58.1377 -89.3888 143° Southeast  Level Estimated
07:32AM 58.0295 -89.2383 144° Southeast  Level Estimated
07:33AM 57.9212 -89.0887 144° Southeast  Level Estimated
07:34AM 57.8127 -88.9399 144° Southeast  Level Estimated
07:35AM 57.7040 -88.7921 144° Southeast  Level Estimated
07:36AM 57.5951 -88.6452 144° Southeast  Level Estimated
07:37AM 57.4861 -88.4992 144° Southeast  Level Estimated
07:38AM 57.3769 -88.3540 144° Southeast  Level Estimated
07:39AM 57.2675 -88.2096 144° Southeast  Level Estimated
07:40AM 57.1580 -88.0662 145° Southeast  Level Estimated
07:41AM 57.0483 -87.9236 145° Southeast  Level Estimated
07:42AM 56.9384 -87.7818 145° Southeast  Level Estimated
07:43AM 56.8284 -87.6408 145° Southeast  Level Estimated
07:44AM 56.7183 -87.5007 145° Southeast  Level Estimated
07:45AM 56.6079 -87.3614 145° Southeast  Level Estimated
07:46AM 56.4975 -87.2229 145° Southeast  Level Estimated
07:46AM 57.3000 -87.6500 146° Southeast 540 621 35,000  Level Edmonton Center
07:47AM 56.3868 -87.0853 145° Southeast  Level Estimated
07:47AM 57.2000 -87.5500 152° Southeast 520 598 35,000  Level Edmonton Center
07:48AM 56.2760 -86.9484 146° Southeast  Level Estimated
07:48AM 57.1000 -87.4000 141° Southeast 500 575 35,000  Level Edmonton Center
07:49AM 56.1651 -86.8123 146° Southeast  Level Estimated
07:49AM 56.9833 -87.2333 142° Southeast 500 575 35,000  Level Edmonton Center
07:50AM 56.0540 -86.6770 146° Southeast  Level Estimated
07:50AM 56.8667 -87.0667 142° Southeast 500 575 35,000  Level Edmonton Center
07:51AM 55.9428 -86.5424 146° Southeast  Level Estimated
07:51AM 56.7667 -86.9333 144° Southeast 500 575 35,000  Level Edmonton Center
07:52AM 55.8314 -86.4087 146° Southeast  Level Estimated
07:52AM 56.6500 -86.8000 148° Southeast 500 575 35,000  Level Edmonton Center
07:53AM 56.5500 -86.6333 137° Southeast 500 575 35,000  Level Edmonton Center
07:54AM 56.4333 -86.4667 142° Southeast 500 575 35,000  Level Edmonton Center
07:55AM 56.3000 -86.3333 151° Southeast 500 575 35,000  Level Edmonton Center
07:56AM 56.2000 -86.2000 143° Southeast 490 564 35,000  Level Edmonton Center
07:57AM 56.0833 -86.0500 144° Southeast 500 575 35,000  Level Edmonton Center
07:58AM 55.9667 -85.8833 141° Southeast 500 575 35,000  Level Edmonton Center
07:59AM 55.8667 -85.7500 143° Southeast 490 564 35,000  Level Edmonton Center
08:00AM 55.7500 -85.6000 144° Southeast 500 575 35,000  Level Edmonton Center
08:01AM 55.6333 -85.4667 147° Southeast 500 575 35,000  Level Edmonton Center
08:02AM 55.5167 -85.3167 144° Southeast 500 575 35,000  Level Edmonton Center
08:03AM 55.4167 -85.1500 137° Southeast 500 575 35,000  Level Edmonton Center
08:04AM 55.2833 -85.0167 150° Southeast 510 587 35,000  Level Edmonton Center
08:05AM 55.1667 -84.8833 147° Southeast 500 575 35,000  Level Edmonton Center
08:06AM 55.0500 -84.7333 144° Southeast 500 575 35,000  Level Edmonton Center
08:07AM 54.9500 -84.6000 143° Southeast 500 575 35,000  Level Edmonton Center
08:08AM 54.8333 -84.4500 143° Southeast 500 575 35,000  Level Edmonton Center
08:09AM 54.7167 -84.3000 143° Southeast 510 587 35,000  Level Edmonton Center
08:10AM 54.6000 -84.1833 150° Southeast 510 587 35,000  Level Edmonton Center
08:11AM 54.4833 -84.0333 143° Southeast 510 587 35,000  Level Edmonton Center
08:12AM 54.3500 -83.9000 150° Southeast 510 587 35,000  Level Edmonton Center
08:13AM 54.2500 -83.7667 142° Southeast 500 575 35,000  Level Edmonton Center
08:14AM 54.1333 -83.6333 146° Southeast 510 587 35,000  Level Edmonton Center
08:15AM 54.0167 -83.5000 146° Southeast 500 575 35,000  Level Edmonton Center
08:16AM 53.9000 -83.3667 146° Southeast 510 587 35,000  Level Edmonton Center
08:17AM 53.7833 -83.2167 143° Southeast 500 575 35,000  Level Edmonton Center
08:18AM 53.6500 -83.0833 149° Southeast 510 587 35,000  Level Edmonton Center
08:19AM 53.5333 -82.9333 143° Southeast 510 587 35,000  Level Edmonton Center
08:20AM 53.4333 -82.8333 149° Southeast 510 587 35,000  Level Edmonton Center
08:21AM 53.3167 -82.6833 142° Southeast 510 587 35,000  Level Edmonton Center
08:22AM 53.2000 -82.5500 146° Southeast 510 587 35,000  Level Edmonton Center
08:23AM 53.0833 -82.4333 149° Southeast 510 587 35,000  Level Edmonton Center
08:24AM 52.9667 -82.3000 145° Southeast 510 587 35,000  Level Edmonton Center
08:25AM 52.8500 -82.1500 142° Southeast 510 587 35,000  Level Edmonton Center
08:26AM 52.7167 -82.0500 156° South 510 587 35,000  Level Edmonton Center
08:27AM 52.6000 -81.9167 145° Southeast 510 587 35,000  Level Edmonton Center
08:28AM 52.4833 -81.7833 145° Southeast 510 587 35,000  Level Edmonton Center
08:29AM 52.3667 -81.6500 145° Southeast 500 575 35,000  Level Edmonton Center
08:30AM 52.2500 -81.5333 149° Southeast 500 575 35,000  Level Edmonton Center
08:31AM 52.1167 -81.4167 152° Southeast 500 575 35,000  Level Edmonton Center
08:32AM 52.0167 -81.3000 144° Southeast 500 575 35,000  Level Edmonton Center
08:33AM 51.9000 -81.1667 145° Southeast 500 575 35,000  Level Edmonton Center
08:34AM 51.7833 -81.0667 152° Southeast 490 564 35,000  Level Edmonton Center
08:35AM 51.6833 -80.9333 140° Southeast 490 564 35,000  Level Edmonton Center
08:36AM 51.5500 -80.8333 155° Southeast 490 564 35,000  Level Edmonton Center
08:37AM 51.4500 -80.7167 144° Southeast 490 564 35,000  Level Edmonton Center
08:38AM 51.3333 -80.5833 144° Southeast 480 552 35,000  Level Edmonton Center
08:39AM 51.2167 -80.4833 152° Southeast 490 564 35,000  Level Edmonton Center
08:40AM 51.1000 -80.3333 141° Southeast 490 564 35,000  Level Edmonton Center
08:41AM 51.0000 -80.2167 144° Southeast 500 575 35,000  Level Edmonton Center
08:43AM 50.8424 -80.0409 145° Southeast  Level FlightAware Approximate
08:50AM 50.0809 -79.2005 144° Southeast  Level FlightAware Approximate
08:51AM 49.9727 -79.0805 144° Southeast  Level FlightAware Approximate
08:52AM 49.8644 -78.9609 145° Southeast  Level FlightAware Approximate
08:53AM 49.7560 -78.8419 145° Southeast  Level FlightAware Approximate
08:54AM 49.6474 -78.7234 145° Southeast  Level FlightAware Approximate
08:55AM 49.5387 -78.6055 145° Southeast  Level FlightAware Approximate
08:56AM 49.4299 -78.4881 145° Southeast  Level FlightAware Approximate
08:57AM 49.3210 -78.3712 145° Southeast  Level FlightAware Approximate
08:58AM 49.2120 -78.2548 145° Southeast  Level FlightAware Approximate
08:59AM 49.1028 -78.1389 145° Southeast  Level FlightAware Approximate
09:00AM 48.9936 -78.0235 145° Southeast  Level FlightAware Approximate
09:01AM 48.8842 -77.9087 145° Southeast  Level FlightAware Approximate
09:02AM 48.7747 -77.7943 145° Southeast  Level FlightAware Approximate
09:03AM 48.6651 -77.6804 146° Southeast  Level FlightAware Approximate
09:04AM 48.5555 -77.5668 146° Southeast  Level FlightAware Approximate
09:05AM 48.4458 -77.4537 146° Southeast  Level FlightAware Approximate
09:06AM 48.3359 -77.3411 146° Southeast  Level FlightAware Approximate
09:07AM 48.2260 -77.2289 146° Southeast  Level FlightAware Approximate
09:08AM 48.1160 -77.1173 146° Southeast  Level FlightAware Approximate
09:09AM 48.0058 -77.0061 146° Southeast  Level FlightAware Approximate
09:10AM 47.8951 -76.8962 147° Southeast  Level FlightAware Approximate
09:11AM 47.7840 -76.7876 147° Southeast  Level FlightAware Approximate
09:12AM 47.6728 -76.6795 147° Southeast  Level FlightAware Approximate
09:13AM 47.5615 -76.5719 147° Southeast  Level FlightAware Approximate
09:14AM 47.4501 -76.4647 147° Southeast  Level FlightAware Approximate
09:15AM 47.3391 -76.3569 146° Southeast  Level FlightAware Approximate
09:16AM 47.2283 -76.2487 146° Southeast  Level FlightAware Approximate
09:17AM 47.1174 -76.1410 147° Southeast  Level FlightAware Approximate
09:17AM 47.1060 -76.1210 147° Southeast 464 534 35,000  Level FlightAware
09:18AM 47.0064 -76.0337 147° Southeast  Level FlightAware Approximate
09:18AM 47.0360 -76.0530 146° Southeast 464 534 35,000  Level FlightAware
09:19AM 46.9610 -75.9800 146° Southeast 463 533 35,000  Level FlightAware
09:20AM 46.8840 -75.9080 147° Southeast 464 534 35,000  Level FlightAware
09:20AM 46.8130 -75.8400 147° Southeast 465 535 35,000  Level FlightAware
09:21AM 46.7290 -75.7600 147° Southeast 467 537 35,000  Level FlightAware
09:22AM 46.6560 -75.6910 147° Southeast 468 539 35,000  Level FlightAware
09:22AM 46.5860 -75.6240 147° Southeast 468 539 35,000  Level FlightAware
09:23AM 46.5070 -75.5500 147° Southeast 467 537 35,000  Level FlightAware
09:24AM 46.4320 -75.4800 147° Southeast 468 539 35,000  Level FlightAware
09:25AM 46.3470 -75.4010 147° Southeast 468 539 35,000  Level FlightAware
09:25AM 46.2580 -75.3180 147° Southeast 471 542 35,000  Level FlightAware
09:26AM 46.1830 -75.2480 147° Southeast 471 542 35,000  Level FlightAware
09:27AM 46.1090 -75.1790 147° Southeast 471 542 35,000  Level FlightAware
09:27AM 46.0330 -75.1090 147° Southeast 474 545 35,000  Level FlightAware
09:28AM 45.9490 -75.0330 148° Southeast 475 547 35,000  Level FlightAware
09:29AM 45.8710 -74.9610 147° Southeast 472 543 35,000  Level FlightAware
09:29AM 45.8000 -74.8960 147° Southeast 473 544 35,000  Level FlightAware
09:30AM 45.7130 -74.8170 148° Southeast 471 542 35,000  Level FlightAware
09:31AM 45.6360 -74.7470 148° Southeast 469 540 35,000  Level FlightAware
09:32AM 45.5730 -74.6900 148° Southeast 470 541 35,000  Level FlightAware
09:32AM 45.4830 -74.6090 148° Southeast 471 542 35,000  Level FlightAware
09:33AM 45.4160 -74.5490 148° Southeast 471 542 35,000  Level FlightAware
09:34AM 45.3290 -74.4720 148° Southeast 471 542 35,000  Level FlightAware
09:34AM 45.2490 -74.4000 148° Southeast 470 541 35,000  Level FlightAware
09:35AM 45.1720 -74.3310 148° Southeast 467 537 35,000  Level FlightAware
09:36AM 45.0940 -74.2620 148° Southeast 467 537 35,000  Level FlightAware
09:37AM 44.9910 -74.2030 158° South 448 516 35,000  Level FlightAware
09:37AM 44.9030 -74.1830 171° South 449 517 35,000  Level FlightAware
09:38AM 44.8180 -74.1630 171° South 450 518 35,000  Level FlightAware
09:39AM 44.7320 -74.1440 171° South 450 518 35,000  Level FlightAware
09:39AM 44.6580 -74.1290 172° South 448 516 35,000  Level FlightAware
09:40AM 44.5590 -74.1140 174° South 448 516 35,000 -120 Level FlightAware
09:41AM 44.4840 -74.1020 173° South 446 513 34,900 -720 Descending FlightAware
09:42AM 44.3870 -74.0850 173° South 451 519 34,000 -600 Descending FlightAware
09:42AM 44.2900 -74.0680 173° South 454 522 34,000  Level FlightAware
09:43AM 44.1770 -74.0490 173° South 453 521 34,000  Level FlightAware
09:44AM 44.0860 -74.0340 173° South 455 524 34,000  Level FlightAware
09:45AM 43.9900 -74.0180 173° South 455 524 34,000  Level FlightAware
09:45AM 43.9070 -74.0040 173° South 454 522 34,000  Level FlightAware
09:46AM 43.8240 -73.9910 174° South 456 525 34,000  Level FlightAware
09:47AM 43.7390 -73.9770 173° South 456 525 34,000  Level FlightAware
09:48AM 43.6470 -73.9610 173° South 457 526 34,000  Level FlightAware
09:48AM 43.5630 -73.9460 173° South 458 527 34,000  Level FlightAware
09:49AM 43.4790 -73.9300 172° South 458 527 34,000  Level FlightAware
09:50AM 43.3720 -73.9120 173° South 458 527 34,000  Level FlightAware
09:50AM 43.2900 -73.8980 173° South 459 528 34,000  Level FlightAware
09:51AM 43.2060 -73.8830 173° South 460 529 34,000  Level FlightAware
09:52AM 43.1110 -73.8660 173° South 461 531 34,000  Level FlightAware
09:52AM 43.0220 -73.8510 173° South 462 532 34,000  Level FlightAware
09:53AM 42.9280 -73.8350 173° South 463 533 34,000  Level FlightAware
09:54AM 42.8470 -73.8200 172° South 462 532 34,000  Level FlightAware
09:55AM 42.7590 -73.8070 174° South 459 528 34,000  Level FlightAware
09:55AM 42.6760 -73.8040 178° South 456 525 34,000 -240 Level FlightAware
09:56AM 42.5780 -73.8060 181° South 455 524 33,700 -900 Descending FlightAware
09:57AM 42.4870 -73.8080 181° South 458 527 32,700 -960 Descending FlightAware
09:57AM 42.4080 -73.8090 181° South 459 528 32,400 -240 Descending FlightAware
09:58AM 42.3360 -73.8090 180° South 459 528 32,400  Level FlightAware
09:59AM 42.2640 -73.8090 180° South 459 528 32,400  Level FlightAware
09:59AM 42.1910 -73.8090 180° South 459 528 32,400 -2,100 Level FlightAware
10:00AM 42.0538 -73.8156 182° South 448 516 29,500 -2,340 Descending FlightAware ADS-B
10:01AM 41.9630 -73.8180 181° South 445 512 28,900 -840 Descending FlightAware
10:02AM 41.8700 -73.8370 189° South 432 497 28,300 -900 Descending FlightAware
10:02AM 41.8315 -73.8537 198° South 438 504 28,000 -900 Descending FlightAware ADS-B
10:03AM 41.7481 -73.8942 200° South 438 504 27,400 -1,080 Descending FlightAware ADS-B
10:03AM 41.7262 -73.9048 200° South 421 484 27,000 -2,280 Descending FlightAware ADS-B
10:03AM 41.6690 -73.9320 200° South 438 504 25,800 -2,220 Descending FlightAware ADS-B
10:04AM 41.6037 -73.9626 199° South 405 466 24,500 -2,160 Descending FlightAware ADS-B
10:05AM 41.5401 -73.9919 199° South 399 459 23,200 -2,160 Descending FlightAware ADS-B
10:05AM 41.4817 -74.0190 199° South 392 451 22,000 -2,160 Descending FlightAware ADS-B
10:06AM 41.4279 -74.0434 199° South 388 447 20,900 -1,560 Descending FlightAware ADS-B
10:06AM 41.3666 -74.0636 194° South 383 441 20,300 -840 Descending FlightAware ADS-B
10:07AM 41.3144 -74.0728 188° South 379 436 20,000 -300 Descending FlightAware ADS-B
10:07AM 41.2585 -74.0805 186° South 380 437 20,000  Level FlightAware ADS-B
10:08AM 41.2008 -74.0890 186° South 380 437 20,000 -300 Level FlightAware ADS-B
10:08AM 41.1479 -74.0975 187° South 379 436 19,700 -720 Descending FlightAware ADS-B
10:09AM 41.1259 -74.1011 187° South 379 436 19,500 -780 Descending FlightAware ADS-B
10:09AM 41.0946 -74.1063 187° South 379 436 19,300 -780 Descending FlightAware ADS-B
10:09AM 41.0717 -74.1100 187° South 377 434 19,100 -600 Descending FlightAware ADS-B
10:09AM 41.0399 -74.1152 187° South 363 418 19,000 -240 Descending FlightAware ADS-B
10:10AM 41.0214 -74.1181 187° South 351 404 19,000  Level FlightAware ADS-B
10:10AM 40.9873 -74.1235 187° South 328 377 19,000  Level FlightAware ADS-B
10:10AM 40.9569 -74.1264 184° South 321 369 19,000  Level FlightAware ADS-B
10:10AM 40.9539 -74.1262 177° South 326 375 19,000  Level FlightAware ADS-B
10:11AM 40.9365 -74.1232 173° South 322 371 19,000 -420 Level FlightAware ADS-B
10:11AM 40.9115 -74.1178 171° South 320 368 18,800 -1,140 Descending FlightAware ADS-B
10:11AM 40.8886 -74.1127 170° South 318 366 18,400 -1,560 Descending FlightAware ADS-B
10:11AM 40.8656 -74.1076 170° South 319 367 18,000 -1,320 Descending FlightAware ADS-B
10:12AM 40.8419 -74.1022 170° South 317 365 17,700 -1,320 Descending FlightAware ADS-B
10:12AM 40.8200 -74.0970 170° South 316 364 17,300 -1,500 Descending FlightAware ADS-B
10:12AM 40.7962 -74.0915 170° South 314 361 16,900 -1,440 Descending FlightAware ADS-B
10:12AM 40.7768 -74.0870 170° South 313 360 16,600 -1,200 Descending FlightAware ADS-B
10:13AM 40.7465 -74.0801 170° South 308 354 16,200 -1,140 Descending FlightAware ADS-B
10:13AM 40.7323 -74.0769 170° South 305 351 16,000 -1,200 Descending FlightAware ADS-B
10:13AM 40.6903 -74.0676 170° South 301 346 15,400 -1,200 Descending FlightAware ADS-B
10:14AM 40.6837 -74.0661 170° South 302 348 15,300 -1,620 Descending FlightAware ADS-B
10:14AM 40.6488 -74.0582 170° South 303 349 14,600 -1,560 Descending FlightAware ADS-B
10:15AM 40.6045 -74.0479 170° South 301 346 13,800 -1,380 Descending FlightAware ADS-B
10:15AM 40.5880 -74.0429 167° South 302 348 13,600 -1,020 Descending FlightAware ADS-B
10:15AM 40.5805 -74.0389 158° South 305 351 13,500 -1,500 Descending FlightAware ADS-B
10:15AM 40.5726 -74.0336 153° Southeast 306 352 13,300 -1,440 Descending FlightAware ADS-B
10:15AM 40.5491 -74.0157 150° Southeast 306 352 12,900 -720 Descending FlightAware ADS-B
10:16AM 40.5098 -73.9859 150° Southeast 305 351 12,700 -720 Descending FlightAware ADS-B
10:16AM 40.4734 -73.9584 150° Southeast 299 344 12,200 -1,800 Descending FlightAware ADS-B
10:17AM 40.4372 -73.9315 151° Southeast 294 338 10,900 -2,580 Descending FlightAware ADS-B
10:17AM 40.4270 -73.9219 144° Southeast 297 342 10,500 -2,520 Descending FlightAware ADS-B
10:17AM 40.4197 -73.9111 132° Southeast 298 343 10,200 -2,580 Descending FlightAware ADS-B
10:17AM 40.4153 -73.9016 121° Southeast 298 343 9,900 -3,000 Descending FlightAware ADS-B
10:17AM 40.4129 -73.8951 116° Southeast 298 343 9,700 -2,700 Descending FlightAware ADS-B
10:17AM 40.4105 -73.8878 113° Southeast 298 343 9,500 -3,000 Descending FlightAware ADS-B
10:18AM 40.4011 -73.8580 112° Southeast 300 345 8,600 -3,000 Descending FlightAware ADS-B
10:18AM 40.3922 -73.8299 113° Southeast 299 344 7,800 -2,640 Descending FlightAware ADS-B
10:18AM 40.3839 -73.8047 113° Southeast 297 342 7,200 -2,460 Descending FlightAware ADS-B
10:18AM 40.3747 -73.7766 113° Southeast 291 335 6,500 -2,520 Descending FlightAware ADS-B
10:19AM 40.3668 -73.7506 112° Southeast 289 333 5,800 -2,640 Descending FlightAware ADS-B
10:19AM 40.3649 -73.7392 102° East 292 336 5,500 -2,340 Descending FlightAware ADS-B
10:19AM 40.3648 -73.7261 91° East 293 337 5,300 -1,620 Descending FlightAware ADS-B
10:19AM 40.3723 -73.6954 72° East 292 336 4,800 -1,320 Descending FlightAware ADS-B
10:20AM 40.3860 -73.6579 64° Northeast 290 334 4,400 -900 Descending FlightAware ADS-B
10:20AM 40.4190 -73.5830 60° Northeast 275 316 3,700 -540 Descending FlightAware
10:21AM 40.4500 -73.5610 28° Northeast 265 305 3,700 -120 Level FlightAware
10:21AM 40.4780 -73.5430 26° Northeast 263 303 3,600 -480 Descending FlightAware
10:22AM 40.4950 -73.5390 10° North 255 293 3,400 -900 Descending FlightAware
10:22AM 40.5480 -73.5400 359° North 256 295 2,700 -600 Descending FlightAware
10:23AM 40.5780 -73.5410 359° North 257 296 2,700 -480 Level FlightAware
10:23AM 40.6140 -73.5420 359° North 254 292 2,300 -900 Descending FlightAware
10:24AM 40.6420 -73.5430 358° North 248 285 1,900 -660 Descending FlightAware
10:24AM 40.6760 -73.5470 355° North 238 274 1,700 -300 Descending FlightAware
10:24AM 40.6900 -73.5570 332° Northwest 226 260 1,700  Level FlightAware
10:25AM 40.7000 -73.5670 323° Northwest 211 243 1,700  Level FlightAware
10:25AM 40.7210 -73.5880 323° Northwest 200 230 1,700  Level FlightAware
10:26AM 40.7430 -73.6110 322° Northwest 198 228 1,700  Level FlightAware
10:26AM 40.7520 -73.6220 317° Northwest 196 226 1,700  Level FlightAware
10:26AM 40.7560 -73.6330 296° West 185 213 1,700  Level FlightAware
10:27AM 40.7510 -73.6640 258° West 172 198 1,700  Level FlightAware
10:27AM 40.7460 -73.6750 239° Southwest 160 184 1,700  Level FlightAware
10:27AM 40.7310 -73.6880 213° Southwest 141 162 1,700 -480 Level FlightAware
10:28AM 40.7140 -73.7010 210° Southwest 135 155 1,300 -780 Descending FlightAware
10:28AM 40.7010 -73.7120 213° Southwest 132 152 1,000 -780 Descending FlightAware
10:29AM 40.6840 -73.7240 208° Southwest 137 158 600 -720 Descending FlightAware
10:29AM 40.6680 -73.7370 212° Southwest 137 158 300 -600 Descending FlightAware
10:30AM 40.6550 -73.7470 210° Southwest 134 154 -720 Descending FlightAware